Time;durP1;ratioP1;P1;durP2;ratioP2;P2;SDS_P1;SDS_P2;PMS_P1;PMS_P2;Temp;Humidity;BMP_temperature;BMP_pressure;BME280_temperature;BME280_humidity;BME280_pressure;Samples;Min_cycle;Max_cycle;Signal;HPM_P1;HPM_P2
2022/01/02 00:01:14;;;;;;;18.58;10.70;;;;;;;3.87;82.19;97010.72;5029639;28;20053;-78
2022/01/02 00:03:41;;;;;;;23.92;12.23;;;;;;;3.81;82.37;96997.47;5030028;28;20049;-76
2022/01/02 00:06:09;;;;;;;22.02;12.07;;;;;;;3.78;82.67;97001.50;5029477;28;20053;-79
2022/01/02 00:08:42;;;;;;;24.13;11.95;;;;;;;3.82;82.42;97002.59;5029845;28;20049;-77
2022/01/02 00:11:12;;;;;;;20.83;11.60;;;;;;;3.81;82.52;97001.00;5032894;28;20053;-77
2022/01/02 00:13:47;;;;;;;21.73;11.65;;;;;;;3.78;82.26;96990.72;5029449;28;20091;-77
2022/01/02 00:16:16;;;;;;;23.40;11.82;;;;;;;3.68;82.70;96996.03;5029349;28;20535;-77
2022/01/02 00:18:50;;;;;;;25.77;13.25;;;;;;;3.66;83.24;96987.41;5029533;28;20128;-78
2022/01/02 00:21:17;;;;;;;25.33;13.30;;;;;;;3.64;83.56;96990.34;5029194;28;20053;-78
2022/01/02 00:23:56;;;;;;;25.50;14.15;;;;;;;3.63;83.87;96986.03;5029630;28;20054;-77
2022/01/02 00:26:34;;;;;;;23.33;12.75;;;;;;;3.62;84.19;96987.09;5029160;28;20049;-77
2022/01/02 00:29:03;;;;;;;23.45;13.25;;;;;;;3.60;84.56;96981.19;5029741;28;20136;-77
2022/01/02 00:31:30;;;;;;;28.00;14.20;;;;;;;3.56;84.86;96984.63;5028997;28;20045;-77
2022/01/02 00:33:57;;;;;;;25.48;13.52;;;;;;;3.49;85.26;96973.25;5029578;28;20045;-77
2022/01/02 00:36:24;;;;;;;25.23;14.27;;;;;;;3.44;85.03;96962.44;5028674;28;20052;-77
2022/01/02 00:38:50;;;;;;;25.65;13.52;;;;;;;3.50;85.30;96956.03;5029216;28;20477;-77
2022/01/02 00:41:24;;;;;;;24.95;12.90;;;;;;;3.48;85.22;96960.88;5032242;28;20049;-77
2022/01/02 00:43:58;;;;;;;26.23;13.57;;;;;;;3.48;85.46;96963.56;5029502;28;20060;-78
2022/01/02 00:46:28;;;;;;;21.35;12.07;;;;;;;3.48;86.06;96960.88;5028685;28;20049;-76
2022/01/02 00:49:00;;;;;;;24.30;12.30;;;;;;;3.49;85.71;96960.59;5029215;28;20072;-78
2022/01/02 00:51:41;;;;;;;21.23;11.50;;;;;;;3.51;85.62;96944.22;5008944;28;20084;-77
2022/01/02 00:54:09;;;;;;;22.60;11.30;;;;;;;3.51;85.45;96946.91;5008655;28;20813;-77
2022/01/02 00:56:40;;;;;;;22.92;11.85;;;;;;;3.47;84.84;96945.78;5009294;28;20054;-77
2022/01/02 00:59:17;;;;;;;21.02;11.27;;;;;;;3.44;84.58;96951.69;5008695;28;20696;-77
2022/01/02 01:01:52;;;;;;;20.65;11.68;;;;;;;3.45;84.52;96953.31;5009232;28;20054;-78
2022/01/02 01:04:20;;;;;;;20.63;10.80;;;;;;;3.45;84.86;96950.63;5008693;28;20075;-77
2022/01/02 01:06:49;;;;;;;20.27;10.27;;;;;;;3.44;84.24;96957.88;5009083;28;20050;-77
2022/01/02 01:09:18;;;;;;;21.42;11.43;;;;;;;3.37;84.24;96944.63;5008539;28;20049;-77
2022/01/02 01:11:46;;;;;;;23.30;11.32;;;;;;;3.35;84.05;96954.06;5012451;28;20073;-77
2022/01/02 01:14:14;;;;;;;18.50;10.32;;;;;;;3.36;83.95;96948.41;5008425;28;20141;-77
2022/01/02 01:16:41;;;;;;;17.00;9.02;;;;;;;3.35;84.34;96944.09;5008724;28;20535;-77
2022/01/02 01:19:08;;;;;;;16.83;9.52;;;;;;;3.40;84.33;96944.13;5019852;28;20053;-77
2022/01/02 01:21:34;;;;;;;16.95;9.43;;;;;;;3.45;84.26;96953.31;5027473;28;20056;-77
2022/01/02 01:24:01;;;;;;;15.45;8.52;;;;;;;3.49;84.18;96943.63;5027580;28;20053;-76
2022/01/02 01:26:27;;;;;;;16.65;8.95;;;;;;;3.53;84.32;96945.56;5027794;28;20049;-77
2022/01/02 01:28:54;;;;;;;17.88;8.55;;;;;;;3.59;84.04;96938.31;5028424;28;20076;-78
2022/01/02 01:31:21;;;;;;;15.35;8.07;;;;;;;3.58;83.60;96934.81;5028010;28;20527;-77
2022/01/02 01:33:48;;;;;;;14.23;7.43;;;;;;;3.64;83.49;96936.47;5028617;28;20046;-77
2022/01/02 01:36:16;;;;;;;12.60;7.28;;;;;;;3.71;83.15;96948.91;5027895;28;20049;-78
2022/01/02 01:38:42;;;;;;;14.20;8.20;;;;;;;3.76;81.80;96941.69;5028104;28;20081;-77
2022/01/02 01:41:15;;;;;;;14.93;7.50;;;;;;;3.76;81.41;96955.16;5016388;28;20050;-77
2022/01/02 01:43:53;;;;;;;14.90;7.60;;;;;;;3.68;80.87;96942.16;5008650;28;20054;-76
2022/01/02 01:46:20;;;;;;;14.80;7.75;;;;;;;3.62;81.31;96935.13;5007946;28;20053;-76
2022/01/02 01:48:53;;;;;;;13.57;7.70;;;;;;;3.61;81.59;96931.63;5007887;28;20057;-76
2022/01/02 01:51:19;;;;;;;13.48;7.97;;;;;;;3.67;81.15;96940.56;5008021;28;20127;-77
2022/01/02 01:53:45;;;;;;;13.35;7.28;;;;;;;3.65;81.04;96931.91;5008424;28;20049;-77
2022/01/02 01:56:12;;;;;;;14.00;7.97;;;;;;;3.64;81.21;96919.50;5007746;28;20062;-76
2022/01/02 01:58:39;;;;;;;16.27;8.23;;;;;;;3.66;81.24;96917.38;5008267;28;20054;-76
2022/01/02 02:01:05;;;;;;;15.32;7.72;;;;;;;3.67;81.41;96929.78;5007648;28;20060;-75
2022/01/02 02:03:32;;;;;;;13.77;7.55;;;;;;;3.71;80.48;96924.66;5008507;28;20049;-76
2022/01/02 02:06:00;;;;;;;13.88;7.90;;;;;;;3.65;80.74;96918.44;5011340;28;20071;-79
2022/01/02 02:08:27;;;;;;;13.80;8.00;;;;;;;3.63;80.98;96915.19;5027126;28;20487;-78
2022/01/02 02:10:56;;;;;;;13.25;7.63;;;;;;;3.65;81.44;96904.97;5018557;28;20133;-77
2022/01/02 02:13:23;;;;;;;13.75;7.18;;;;;;;3.68;81.40;96912.53;5007536;28;20440;-76
2022/01/02 02:15:50;;;;;;;12.93;7.25;;;;;;;3.69;81.22;96916.03;5008244;28;20141;-76
2022/01/02 02:18:16;;;;;;;11.30;6.40;;;;;;;3.71;81.29;96903.13;5007126;28;20536;-76
2022/01/02 02:20:45;;;;;;;12.57;6.47;;;;;;;3.74;80.95;96898.03;5008264;28;20061;-76
2022/01/02 02:23:14;;;;;;;12.73;7.25;;;;;;;3.76;80.93;96895.91;5007363;28;20057;-78
2022/01/02 02:25:42;;;;;;;12.45;6.85;;;;;;;3.83;80.76;96891.06;5008423;28;20057;-78
2022/01/02 02:28:11;;;;;;;14.35;6.68;;;;;;;3.88;79.79;96887.59;5007373;28;20492;-78
2022/01/02 02:30:40;;;;;;;14.38;6.32;;;;;;;3.94;79.25;96897.31;5008263;28;20068;-78
2022/01/02 02:33:08;;;;;;;10.70;6.15;;;;;;;3.97;78.72;96895.97;5007609;28;20100;-76
2022/01/02 02:35:36;;;;;;;9.55;5.80;;;;;;;3.92;78.86;96900.28;5007862;28;20057;-78
2022/01/02 02:38:05;;;;;;;12.10;6.88;;;;;;;3.88;79.25;96888.41;5007522;28;20050;-77
2022/01/02 02:40:32;;;;;;;12.32;6.47;;;;;;;3.88;79.39;96879.53;5011538;28;20057;-76
2022/01/02 02:43:03;;;;;;;12.80;6.28;;;;;;;3.90;79.55;96880.88;5008043;28;20066;-77
2022/01/02 02:51:03;;;;;;;11.23;6.32;;;;;;;3.99;79.14;96856.13;5007718;28;20141;-76
2022/01/02 02:53:31;;;;;;;12.32;5.90;;;;;;;4.00;79.08;96846.97;5007582;28;20107;-77
2022/01/02 02:55:59;;;;;;;10.23;5.50;;;;;;;4.01;78.45;96860.16;5007710;28;20509;-76
2022/01/02 02:58:41;;;;;;;10.82;6.05;;;;;;;4.01;78.25;96860.16;5007135;28;20046;-77
2022/01/02 03:01:08;;;;;;;9.02;5.45;;;;;;;4.05;77.63;96852.38;5009757;28;20053;-77
2022/01/02 03:03:35;;;;;;;11.23;5.78;;;;;;;4.05;77.49;96857.75;5011503;28;20053;-77
2022/01/02 03:06:02;;;;;;;12.02;5.80;;;;;;;4.02;77.80;96851.03;5010932;28;20050;-74
2022/01/02 03:08:28;;;;;;;9.50;5.75;;;;;;;4.02;77.78;96844.81;5011096;28;20049;-77
2022/01/02 03:10:56;;;;;;;12.30;6.47;;;;;;;4.00;77.45;96853.16;5023671;28;20107;-77
2022/01/02 03:13:23;;;;;;;13.02;5.68;;;;;;;4.02;77.30;96851.03;5030519;28;20095;-77
2022/01/02 03:15:50;;;;;;;9.63;5.38;;;;;;;4.03;77.17;96846.44;5030774;28;20470;-76
2022/01/02 03:18:16;;;;;;;11.25;5.72;;;;;;;4.00;77.26;96842.38;5030108;28;20073;-76
2022/01/02 03:20:43;;;;;;;10.38;5.72;;;;;;;4.03;77.04;96846.44;5031013;28;20061;-77
2022/01/02 03:23:10;;;;;;;8.18;5.00;;;;;;;4.05;76.91;96849.69;5030473;28;20050;-76
2022/01/02 03:25:36;;;;;;;8.30;4.85;;;;;;;4.03;76.52;96844.56;5030849;28;20050;-76
2022/01/02 03:28:04;;;;;;;8.70;5.38;;;;;;;4.05;76.69;96838.91;5030325;28;20057;-76
2022/01/02 03:30:31;;;;;;;10.18;5.35;;;;;;;4.07;76.93;96834.03;5030697;28;20053;-76
2022/01/02 03:32:57;;;;;;;10.30;4.93;;;;;;;4.08;76.76;96833.81;5030517;28;20063;-76
2022/01/02 03:35:24;;;;;;;8.48;4.88;;;;;;;4.11;76.22;96827.06;5030294;28;20167;-76
2022/01/02 03:37:51;;;;;;;9.60;5.30;;;;;;;4.09;76.21;96830.03;5030209;28;20069;-77
2022/01/02 03:40:17;;;;;;;9.13;4.95;;;;;;;4.01;75.91;96827.81;5025981;28;20053;-76
2022/01/02 03:42:44;;;;;;;11.15;5.85;;;;;;;3.93;76.35;96828.34;5030605;28;20050;-77
2022/01/02 03:45:12;;;;;;;10.48;5.28;;;;;;;3.90;76.32;96831.56;5029793;28;20511;-79
2022/01/02 03:47:39;;;;;;;11.18;6.10;;;;;;;3.84;76.34;96828.03;5030538;28;20049;-77
2022/01/02 03:50:06;;;;;;;9.77;5.38;;;;;;;3.82;76.38;96832.88;5030198;28;20049;-77
2022/01/02 03:52:32;;;;;;;10.60;5.57;;;;;;;3.77;76.53;96829.38;5030172;28;20048;-77
2022/01/02 03:55:00;;;;;;;11.18;5.47;;;;;;;3.69;76.39;96819.88;5030221;28;20053;-77
2022/01/02 03:57:26;;;;;;;10.55;5.57;;;;;;;3.59;76.87;96822.53;5029497;28;20049;-76
2022/01/02 03:59:53;;;;;;;8.60;5.35;;;;;;;3.55;77.45;96818.72;5029725;28;20065;-77
2022/01/02 04:02:21;;;;;;;14.55;5.60;;;;;;;3.50;77.85;96807.94;5029741;28;20049;-77
2022/01/02 04:04:47;;;;;;;11.32;6.10;;;;;;;3.46;78.32;96804.16;5030109;28;20057;-77
2022/01/02 04:07:14;;;;;;;9.68;5.50;;;;;;;3.47;78.38;96811.97;5029237;28;20049;-76
2022/01/02 04:09:41;;;;;;;9.93;5.60;;;;;;;3.47;78.25;96805.78;5029945;28;20679;-76
2022/01/02 04:12:08;;;;;;;9.00;5.50;;;;;;;3.38;78.03;96814.34;5028984;28;20049;-76
2022/01/02 04:14:34;;;;;;;10.23;5.53;;;;;;;3.37;78.08;96807.34;5029548;28;20049;-78
2022/01/02 04:17:01;;;;;;;10.70;5.57;;;;;;;3.30;78.12;96804.09;5029406;28;20500;-77
2022/01/02 04:19:29;;;;;;;10.98;5.70;;;;;;;3.22;78.38;96801.88;5029293;28;20057;-77
2022/01/02 04:21:55;;;;;;;10.23;5.70;;;;;;;3.14;79.22;96795.09;5029504;28;20496;-76
2022/01/02 04:24:22;;;;;;;10.63;5.88;;;;;;;3.06;79.94;96792.09;5029251;28;20056;-77
2022/01/02 04:26:48;;;;;;;11.45;6.03;;;;;;;3.05;80.23;96793.97;5029234;28;20398;-77
2022/01/02 04:29:15;;;;;;;11.70;5.95;;;;;;;3.10;80.07;96793.19;5029177;28;20060;-77
2022/01/02 04:31:41;;;;;;;13.60;5.95;;;;;;;3.13;79.36;96795.34;5029311;28;20064;-76
2022/01/02 04:34:08;;;;;;;10.95;5.82;;;;;;;3.10;79.51;96796.69;5028925;28;20056;-78
2022/01/02 04:36:36;;;;;;;12.02;6.13;;;;;;;3.07;79.68;96797.19;5028518;28;20053;-77
2022/01/02 04:39:03;;;;;;;10.85;5.95;;;;;;;3.05;79.28;96795.84;5028411;28;20049;-76
2022/01/02 04:41:29;;;;;;;13.23;6.43;;;;;;;3.03;79.74;96789.94;5029468;28;20053;-79
2022/01/02 04:43:56;;;;;;;10.48;6.15;;;;;;;3.02;79.75;96785.59;5029309;28;20061;-78
2022/01/02 04:46:22;;;;;;;10.05;5.82;;;;;;;3.01;79.48;96781.28;5032847;28;20049;-78
2022/01/02 04:48:49;;;;;;;9.98;5.65;;;;;;;3.00;79.26;96788.53;5028877;28;20520;-78
2022/01/02 04:51:15;;;;;;;10.02;5.90;;;;;;;2.91;79.20;96778.53;5028833;28;20049;-78
2022/01/02 04:53:47;;;;;;;8.95;5.53;;;;;;;2.88;79.17;96772.59;5029147;28;20057;-79
2022/01/02 04:56:15;;;;;;;11.07;6.13;;;;;;;2.85;79.26;96773.09;5028818;28;20049;-78
2022/01/02 04:58:41;;;;;;;10.48;6.07;;;;;;;2.84;79.83;96766.13;5028821;28;20057;-79
2022/01/02 05:01:11;;;;;;;11.98;6.10;;;;;;;2.82;80.06;96772.84;5028413;28;20049;-78
2022/01/02 05:03:38;;;;;;;10.45;6.10;;;;;;;2.81;80.53;96769.31;5029021;28;20038;-78
2022/01/02 05:06:05;;;;;;;12.88;6.03;;;;;;;2.83;80.39;96775.25;5028066;28;20057;-78
2022/01/02 05:08:31;;;;;;;10.55;5.50;;;;;;;2.82;80.71;96762.88;5028593;28;20046;-78
2022/01/02 05:11:00;;;;;;;11.73;5.63;;;;;;;2.83;79.36;96764.50;5028806;28;20054;-78
2022/01/02 05:13:26;;;;;;;9.38;5.18;;;;;;;2.78;79.32;96763.66;5028230;28;20052;-78
2022/01/02 05:15:53;;;;;;;9.50;5.70;;;;;;;2.75;80.09;96758.78;5032764;28;20534;-78
2022/01/02 05:18:19;;;;;;;10.93;5.60;;;;;;;2.75;80.24;96761.47;5027545;28;20050;-78
2022/01/02 05:20:46;;;;;;;11.70;6.47;;;;;;;2.70;80.81;96750.66;5028562;28;20064;-77
2022/01/02 05:23:13;;;;;;;10.82;5.82;;;;;;;2.68;81.23;96745.56;5027056;28;20139;-78
2022/01/02 05:25:40;;;;;;;11.38;6.00;;;;;;;2.68;81.43;96745.56;5028610;28;20056;-78
2022/01/02 05:28:09;;;;;;;10.00;5.43;;;;;;;2.67;81.47;96760.09;5027792;28;20056;-78
2022/01/02 05:30:36;;;;;;;11.30;5.93;;;;;;;2.69;81.26;96754.44;5028474;28;20053;-78
2022/01/02 05:33:02;;;;;;;9.48;5.85;;;;;;;2.71;81.09;96750.41;5027488;28;20100;-77
2022/01/02 05:35:30;;;;;;;10.15;5.78;;;;;;;2.69;81.36;96747.19;5028530;28;20045;-78
2022/01/02 05:37:56;;;;;;;9.45;5.70;;;;;;;2.69;81.12;96736.41;5028060;28;20133;-78
2022/01/02 05:40:23;;;;;;;10.20;5.80;;;;;;;2.70;81.04;96743.41;5027644;28;20049;-78
2022/01/02 05:42:49;;;;;;;9.90;5.35;;;;;;;2.76;80.72;96744.25;5027862;28;20488;-77
2022/01/02 05:45:17;;;;;;;10.43;5.95;;;;;;;2.77;80.73;96743.22;5031772;28;20049;-78
2022/01/02 05:47:44;;;;;;;10.02;5.20;;;;;;;2.80;80.11;96742.69;5027820;28;20057;-77
2022/01/02 05:50:10;;;;;;;11.43;5.53;;;;;;;2.79;79.83;96731.13;5027750;28;20045;-78
2022/01/02 05:52:37;;;;;;;8.77;5.30;;;;;;;2.76;79.43;96726.25;5028121;28;20057;-78
2022/01/02 05:55:04;;;;;;;8.52;5.18;;;;;;;2.78;79.73;96732.19;5027715;28;20399;-77
2022/01/02 05:57:32;;;;;;;11.15;5.60;;;;;;;2.79;79.21;96736.50;5028178;28;20053;-78
2022/01/02 05:59:58;;;;;;;9.82;5.38;;;;;;;2.81;78.97;96742.41;5027968;28;20492;-77
2022/01/02 06:02:26;;;;;;;9.38;5.10;;;;;;;2.80;78.67;96740.00;5027716;28;20052;-78
2022/01/02 06:04:53;;;;;;;10.90;5.38;;;;;;;2.70;78.69;96735.34;5028101;28;20052;-77
2022/01/02 06:07:19;;;;;;;9.43;5.18;;;;;;;2.61;79.14;96723.47;5027229;28;20052;-78
2022/01/02 06:09:46;;;;;;;13.48;5.40;;;;;;;2.49;79.71;96715.56;5028010;28;20056;-78
2022/01/02 06:12:12;;;;;;;11.27;6.05;;;;;;;2.43;80.63;96721.16;5027425;28;20442;-78
2022/01/02 06:14:38;;;;;;;12.25;5.80;;;;;;;2.39;81.39;96720.06;5032004;28;20037;-77
2022/01/02 06:17:05;;;;;;;11.40;6.28;;;;;;;2.38;81.53;96718.44;5026900;28;20064;-77
2022/01/02 06:19:33;;;;;;;10.60;5.90;;;;;;;2.40;81.77;96710.91;5027622;28;20049;-78
2022/01/02 06:22:00;;;;;;;9.27;5.57;;;;;;;2.44;81.85;96709.34;5027775;28;20045;-78
2022/01/02 06:24:27;;;;;;;11.40;5.38;;;;;;;2.48;81.46;96708.56;5027762;28;20561;-78
2022/01/02 06:26:54;;;;;;;11.07;5.80;;;;;;;2.52;81.56;96709.69;5027413;28;20054;-78
2022/01/02 06:29:21;;;;;;;11.70;5.95;;;;;;;2.55;81.20;96714.53;5027445;28;20053;-77
2022/01/02 06:31:47;;;;;;;12.63;6.00;;;;;;;2.56;80.84;96710.00;5027630;28;20088;-78
2022/01/02 06:34:14;;;;;;;10.27;5.45;;;;;;;2.56;80.51;96704.63;5028629;28;20049;-77
2022/01/02 06:36:42;;;;;;;11.38;5.97;;;;;;;2.57;80.38;96709.72;5031316;28;20516;-78
2022/01/02 06:39:08;;;;;;;10.50;5.50;;;;;;;2.55;80.08;96705.66;5031112;28;20049;-79
2022/01/02 06:41:35;;;;;;;11.75;5.47;;;;;;;2.52;80.13;96700.81;5031710;28;20053;-77
2022/01/02 06:44:01;;;;;;;11.00;5.97;;;;;;;2.41;80.47;96691.88;5032229;28;20060;-77
2022/01/02 06:46:28;;;;;;;11.27;5.75;;;;;;;2.46;80.50;96704.53;5034390;28;20053;-78
2022/01/02 06:48:54;;;;;;;8.75;5.18;;;;;;;2.49;79.64;96696.75;5031347;28;20057;-78
2022/01/02 06:51:21;;;;;;;9.07;5.40;;;;;;;2.46;79.95;96704.53;5030697;28;20459;-77
2022/01/02 06:53:49;;;;;;;9.85;5.63;;;;;;;2.45;79.98;96708.28;5031364;28;20056;-78
2022/01/02 06:56:16;;;;;;;10.40;5.80;;;;;;;2.42;79.90;96700.75;5030599;28;20818;-78
2022/01/02 06:58:42;;;;;;;11.75;5.95;;;;;;;2.37;80.44;96698.81;5031208;28;20056;-78
2022/01/02 07:01:09;;;;;;;12.68;6.45;;;;;;;2.28;81.26;96698.47;5030486;28;20640;-78
2022/01/02 07:03:35;;;;;;;10.48;6.03;;;;;;;2.21;81.92;96684.47;5031296;28;20057;-78
2022/01/02 07:06:02;;;;;;;10.05;6.30;;;;;;;2.16;82.27;96689.78;5030618;28;20779;-78
2022/01/02 07:08:28;;;;;;;11.38;6.43;;;;;;;2.22;82.05;96693.31;5031168;28;20053;-78
2022/01/02 07:10:57;;;;;;;10.68;5.70;;;;;;;2.30;82.08;96685.59;5031115;28;20100;-78
2022/01/02 07:13:24;;;;;;;10.27;5.95;;;;;;;2.33;81.91;96693.13;5030598;28;20052;-78
2022/01/02 07:15:51;;;;;;;10.80;5.40;;;;;;;2.40;81.77;96700.16;5035211;28;20076;-79
2022/01/02 07:18:17;;;;;;;9.90;5.82;;;;;;;2.51;81.08;96699.19;5030411;28;20064;-77
2022/01/02 07:20:44;;;;;;;8.68;5.03;;;;;;;2.55;81.19;96703.78;5030976;28;20715;-78
2022/01/02 07:23:10;;;;;;;10.02;6.05;;;;;;;2.57;80.97;96706.22;5030461;28;20061;-78
2022/01/02 07:25:37;;;;;;;9.95;5.78;;;;;;;2.57;80.99;96700.84;5031098;28;20041;-78
2022/01/02 07:28:04;;;;;;;13.98;5.30;;;;;;;2.61;81.01;96712.72;5030334;28;20412;-78
2022/01/02 07:30:31;;;;;;;11.02;5.57;;;;;;;2.68;80.76;96705.22;5030911;28;20056;-77
2022/01/02 07:33:01;;;;;;;10.43;5.30;;;;;;;2.75;80.75;96702.31;5030648;28;20053;-78
2022/01/02 07:35:28;;;;;;;10.35;5.07;;;;;;;2.77;81.02;96706.38;5030414;28;20447;-78
2022/01/02 07:37:54;;;;;;;10.23;5.85;;;;;;;2.77;80.65;96697.50;5030309;28;20053;-78
2022/01/02 07:40:21;;;;;;;11.75;5.97;;;;;;;2.82;81.01;96692.94;5030057;28;20531;-77
2022/01/02 07:42:47;;;;;;;11.40;6.28;;;;;;;2.88;81.50;96681.16;5030297;28;20057;-78
2022/01/02 07:45:15;;;;;;;14.93;6.68;;;;;;;2.93;81.83;96671.50;5030380;28;20045;-78
2022/01/02 07:47:42;;;;;;;16.35;6.75;;;;;;;2.96;81.53;96676.34;5030004;28;20049;-78
2022/01/02 07:50:09;;;;;;;11.75;6.40;;;;;;;3.06;81.87;96679.06;5029970;28;20528;-79
2022/01/02 07:52:36;;;;;;;12.27;6.88;;;;;;;3.16;81.75;96681.81;5030473;28;20049;-78
2022/01/02 07:55:02;;;;;;;12.60;6.28;;;;;;;3.27;81.46;96685.34;5029590;28;20582;-77
2022/01/02 07:57:29;;;;;;;12.68;6.82;;;;;;;3.34;81.22;96683.22;5029796;28;20060;-78
2022/01/02 07:59:55;;;;;;;10.45;6.00;;;;;;;3.40;81.62;96679.50;5029206;28;20057;-78
2022/01/02 08:02:23;;;;;;;12.73;6.65;;;;;;;3.48;81.48;96678.16;5029690;28;20060;-78
2022/01/02 08:04:50;;;;;;;10.85;6.30;;;;;;;3.53;81.37;96672.78;5030177;28;20054;-75
2022/01/02 08:07:16;;;;;;;13.55;6.03;;;;;;;3.63;81.56;96670.13;5043749;28;20048;-76
2022/01/02 08:09:43;;;;;;;9.27;5.00;;;;;;;3.77;81.23;96657.78;5050190;28;20045;-76
2022/01/02 08:12:09;;;;;;;9.18;5.03;;;;;;;4.03;80.76;96653.22;5049601;28;20057;-76
2022/01/02 08:14:36;;;;;;;9.18;4.60;;;;;;;4.37;79.71;96656.19;5046990;28;20060;-76
2022/01/02 08:17:03;;;;;;;7.32;4.13;;;;;;;4.80;78.99;96656.66;5028988;28;20052;-75
2022/01/02 08:19:31;;;;;;;10.73;3.65;;;;;;;5.13;75.12;96665.22;5030175;28;20041;-75
2022/01/02 08:21:57;;;;;;;7.57;3.90;;;;;;;5.35;73.61;96657.56;5030099;28;20053;-75
2022/01/02 08:24:23;;;;;;;5.38;3.10;;;;;;;5.48;71.85;96656.13;5029420;28;20045;-76
2022/01/02 08:26:51;;;;;;;6.45;3.13;;;;;;;5.57;69.54;96662.56;5029837;28;20049;-76
2022/01/02 08:29:18;;;;;;;4.18;2.40;;;;;;;5.63;69.70;96657.94;5029492;28;20045;-75
2022/01/02 08:31:44;;;;;;;5.88;2.97;;;;;;;5.64;69.13;96655.00;5029386;28;20046;-76
2022/01/02 08:34:11;;;;;;;6.15;3.40;;;;;;;5.66;69.20;96662.81;5029149;28;20126;-75
2022/01/02 08:36:39;;;;;;;5.47;3.25;;;;;;;5.67;69.03;96649.00;5029621;28;20056;-75
2022/01/02 08:39:06;;;;;;;6.25;3.45;;;;;;;5.69;68.93;96640.63;5029078;28;20048;-76
2022/01/02 08:41:32;;;;;;;5.22;2.88;;;;;;;5.70;68.87;96647.66;5029596;28;20049;-75
2022/01/02 08:43:59;;;;;;;5.97;3.28;;;;;;;5.73;68.46;96641.69;5047903;28;20049;-75
2022/01/02 08:46:25;;;;;;;4.15;2.50;;;;;;;5.78;68.10;96638.94;5048648;28;20056;-73
2022/01/02 08:48:52;;;;;;;4.97;2.90;;;;;;;5.87;68.80;96641.88;5049081;28;20808;-75
2022/01/02 08:51:18;;;;;;;4.63;2.47;;;;;;;5.95;69.44;96641.28;5049321;28;20048;-75
2022/01/02 08:53:46;;;;;;;4.75;2.70;;;;;;;6.05;69.34;96638.53;5049270;28;20049;-72
2022/01/02 08:56:13;;;;;;;5.45;3.17;;;;;;;6.17;69.81;96646.28;5048830;28;20048;-73
2022/01/02 08:58:39;;;;;;;5.97;3.10;;;;;;;6.26;68.85;96644.56;5049204;28;20044;-73
2022/01/02 09:01:06;;;;;;;7.97;3.50;;;;;;;6.33;69.83;96645.09;5048569;28;20049;-74
2022/01/02 09:03:33;;;;;;;5.63;3.03;;;;;;;6.44;69.07;96643.91;5049053;28;20045;-73
2022/01/02 09:05:59;;;;;;;6.38;3.30;;;;;;;6.55;64.08;96647.31;5049301;28;20462;-74
2022/01/02 09:08:26;;;;;;;5.70;3.33;;;;;;;6.62;62.92;96652.38;5048172;28;20049;-75
2022/01/02 09:10:54;;;;;;;5.63;2.60;;;;;;;6.70;62.68;96644.47;5048888;28;20053;-74
2022/01/02 09:13:23;;;;;;;6.35;3.28;;;;;;;6.80;64.74;96630.03;5048370;28;20053;-73
2022/01/02 09:15:49;;;;;;;5.68;2.70;;;;;;;6.93;65.06;96632.03;5038931;28;20044;-73
2022/01/02 09:18:16;;;;;;;4.85;2.75;;;;;;;7.07;64.97;96616.72;5048246;28;20621;-73
2022/01/02 09:20:43;;;;;;;6.28;2.95;;;;;;;7.27;63.38;96623.78;5048864;28;20033;-73
2022/01/02 09:23:10;;;;;;;7.75;2.80;;;;;;;7.42;63.31;96617.38;5048317;28;20041;-74
2022/01/02 09:25:36;;;;;;;6.40;2.55;;;;;;;7.50;61.34;96627.56;5048705;28;20055;-73
2022/01/02 09:28:04;;;;;;;4.63;2.90;;;;;;;7.54;61.17;96620.47;5047843;28;20055;-72
2022/01/02 09:30:31;;;;;;;3.83;1.98;;;;;;;7.55;61.26;96624.78;5048891;28;20064;-73
2022/01/02 09:32:58;;;;;;;4.13;2.50;;;;;;;7.58;60.38;96621.50;5048590;28;20060;-74
2022/01/02 09:35:25;;;;;;;5.30;2.30;;;;;;;7.57;59.88;96621.81;5047790;28;20055;-78
2022/01/02 09:37:51;;;;;;;3.58;2.10;;;;;;;7.53;59.57;96624.28;5047982;28;20073;-78
2022/01/02 09:40:18;;;;;;;4.82;2.72;;;;;;;7.54;59.59;96635.91;5048109;28;20045;-74
2022/01/02 09:42:45;;;;;;;8.52;2.45;;;;;;;7.53;60.01;96632.41;5048371;28;20059;-74
2022/01/02 09:45:13;;;;;;;5.53;2.80;;;;;;;7.54;58.76;96647.56;5040472;28;20060;-73
2022/01/02 09:47:39;;;;;;;5.15;2.58;;;;;;;7.72;60.37;96637.03;5028326;28;20444;-74
2022/01/02 09:50:08;;;;;;;7.53;2.95;;;;;;;7.95;61.44;96635.34;5028032;28;20049;-75
2022/01/02 09:52:35;;;;;;;4.80;2.50;;;;;;;8.21;57.51;96641.19;5028033;28;20056;-73
2022/01/02 09:55:02;;;;;;;4.30;2.42;;;;;;;8.44;57.14;96642.19;5028352;28;20056;-73
2022/01/02 09:57:28;;;;;;;8.30;3.15;;;;;;;8.81;58.96;96635.84;5027940;28;20064;-74
2022/01/02 09:59:56;;;;;;;6.32;3.40;;;;;;;9.15;59.74;96632.78;5034692;28;20057;-74
2022/01/02 10:02:24;;;;;;;5.90;3.55;;;;;;;9.57;61.18;96631.63;5047608;28;20049;-73
2022/01/02 10:05:00;;;;;;;4.97;3.13;;;;;;;9.97;60.64;96625.59;5048026;28;20045;-73
2022/01/02 10:07:30;;;;;;;5.72;3.50;;;;;;;10.29;59.61;96630.06;5047898;28;20127;-74
2022/01/02 10:09:57;;;;;;;6.65;3.50;;;;;;;10.54;59.28;96625.88;5047438;28;20055;-73
2022/01/02 10:12:26;;;;;;;7.03;3.78;;;;;;;10.76;58.94;96622.34;5047827;28;20049;-74
2022/01/02 10:15:17;;;;;;;5.95;3.60;;;;;;;11.00;56.20;96617.31;5042339;28;20049;-74
2022/01/02 10:17:57;;;;;;;6.35;3.17;;;;;;;11.34;56.72;96611.19;5027659;28;20090;-75
2022/01/02 10:20:26;;;;;;;8.27;3.55;;;;;;;11.59;55.41;96612.41;5028038;28;20056;-75
2022/01/02 10:23:08;;;;;;;7.10;3.30;;;;;;;11.77;53.16;96607.75;5027792;28;20041;-75
2022/01/02 10:25:40;;;;;;;4.68;2.95;;;;;;;11.89;50.00;96598.97;5028231;28;20060;-75
2022/01/02 10:28:27;;;;;;;4.35;2.78;;;;;;;11.98;48.95;96602.50;5027546;28;20053;-72
2022/01/02 10:30:56;;;;;;;5.20;2.95;;;;;;;12.09;50.76;96592.88;5033973;28;20567;-73
2022/01/02 10:33:24;;;;;;;7.97;2.70;;;;;;;12.27;48.62;96588.22;5047541;28;20390;-75
2022/01/02 10:35:58;;;;;;;5.22;2.55;;;;;;;12.49;48.46;96585.28;5046877;28;20064;-74
2022/01/02 10:38:25;;;;;;;4.45;2.20;;;;;;;12.74;47.62;96569.97;5047296;28;20397;-73
2022/01/02 10:40:51;;;;;;;3.38;2.20;;;;;;;13.01;50.09;96573.41;5047603;28;20045;-73
2022/01/02 10:43:26;;;;;;;3.38;1.88;;;;;;;13.06;45.33;96567.75;5047638;28;20579;-73
2022/01/02 10:45:55;;;;;;;4.25;1.98;;;;;;;12.97;45.34;96567.78;5034228;28;20045;-73
2022/01/02 10:48:35;;;;;;;3.33;1.95;;;;;;;12.79;44.86;96564.31;5027099;28;20595;-73
2022/01/02 10:51:05;;;;;;;3.20;1.90;;;;;;;12.60;45.53;96569.34;5027399;28;20062;-72
2022/01/02 10:53:33;;;;;;;4.05;2.08;;;;;;;12.56;47.32;96568.38;5027772;28;20568;-75
2022/01/02 10:56:01;;;;;;;3.05;1.92;;;;;;;12.50;47.05;96566.97;5027924;28;20146;-75
2022/01/02 10:58:28;;;;;;;3.08;1.77;;;;;;;12.51;46.37;96568.56;5027178;28;20048;-75
2022/01/02 11:01:00;;;;;;;3.20;1.85;;;;;;;12.60;48.37;96563.09;5026480;28;20049;-73
2022/01/02 11:03:27;;;;;;;2.92;1.92;;;;;;;12.70;47.34;96551.81;5026551;28;20049;-73
2022/01/02 11:06:02;;;;;;;3.45;1.80;;;;;;;12.90;46.64;96550.28;5027441;28;20069;-73
2022/01/02 11:08:33;;;;;;;4.20;1.83;;;;;;;13.09;46.28;96542.47;5026820;28;20058;-73
2022/01/02 11:11:00;;;;;;;3.42;1.85;;;;;;;13.22;45.91;96540.69;5027275;28;20064;-73
2022/01/02 11:13:27;;;;;;;3.72;2.00;;;;;;;13.22;45.48;96546.94;5026660;28;20799;-73
2022/01/02 11:15:55;;;;;;;33.05;4.22;;;;;;;13.19;46.19;96542.09;5027640;28;20080;-73
2022/01/02 11:18:22;;;;;;;2.53;1.70;;;;;;;13.16;45.72;96542.78;5026600;28;20049;-73
2022/01/02 11:20:48;;;;;;;4.20;1.88;;;;;;;13.15;46.00;96541.16;5028202;28;20052;-73
2022/01/02 11:23:23;;;;;;;2.55;1.80;;;;;;;13.17;45.47;96538.09;5031026;28;20042;-74
2022/01/02 11:25:55;;;;;;;3.67;2.08;;;;;;;13.17;46.58;96538.09;5030009;28;20057;-74
2022/01/02 11:28:34;;;;;;;4.10;2.13;;;;;;;13.24;45.79;96544.66;5030544;28;20689;-74
2022/01/02 11:31:02;;;;;;;3.88;2.20;;;;;;;13.22;47.05;96544.22;5031007;28;20048;-74
2022/01/02 11:33:31;;;;;;;3.55;2.20;;;;;;;13.20;46.67;96538.22;5030864;28;20045;-74
2022/01/02 11:35:59;;;;;;;6.80;4.05;;;;;;;13.29;48.51;96525.34;5031167;28;20064;-74
2022/01/02 11:38:42;;;;;;;5.40;2.30;;;;;;;13.43;46.81;96527.03;5030375;28;20487;-74
2022/01/02 11:41:09;;;;;;;2.80;1.80;;;;;;;13.36;46.46;96518.53;5030979;28;20045;-76
2022/01/02 11:43:55;;;;;;;3.45;2.13;;;;;;;13.23;46.90;96513.00;5030876;28;20053;-75